Time;durP1;ratioP1;P1;durP2;ratioP2;P2;SDS_P1;SDS_P2;PMS_P1;PMS_P2;Temp;Humidity;BMP_temperature;BMP_pressure;BME280_temperature;BME280_humidity;BME280_pressure;Samples;Min_cycle;Max_cycle;Signal;HPM_P1;HPM_P2
2023/08/30 00:00:26;;;;;;;5.90;4.37;;;19.00;93.30;;;;;;10363788;28;20484;-62
2023/08/30 00:05:27;;;;;;;5.30;4.10;;;19.00;93.30;;;;;;10361875;28;20397;-64
2023/08/30 00:10:28;;;;;;;4.82;4.15;;;19.00;93.30;;;;;;10364207;28;20764;-62
2023/08/30 00:15:29;;;;;;;6.28;4.35;;;19.00;93.30;;;;;;10359937;28;20519;-64
2023/08/30 00:20:30;;;;;;;5.20;4.30;;;19.00;93.30;;;;;;10360685;28;20403;-64
2023/08/30 00:25:30;;;;;;;4.80;4.30;;;18.90;93.30;;;;;;10362428;28;20408;-61
2023/08/30 00:30:31;;;;;;;5.70;4.30;;;18.90;93.20;;;;;;10360964;28;20408;-62
2023/08/30 00:35:31;;;;;;;5.47;4.13;;;18.90;93.20;;;;;;10361105;28;20409;-62
2023/08/30 00:40:39;;;;;;;6.30;4.47;;;18.90;93.20;;;;;;10358863;28;20416;-64
2023/08/30 00:45:40;;;;;;;4.80;4.10;;;18.90;93.20;;;;;;10357898;28;20840;-64
2023/08/30 00:50:41;;;;;;;5.03;3.90;;;18.90;93.20;;;;;;10359343;28;20421;-64
2023/08/30 00:55:43;;;;;;;6.03;4.40;;;18.80;93.10;;;;;;10360271;28;20458;-63
2023/08/30 01:00:44;;;;;;;5.43;4.53;;;18.80;93.10;;;;;;10358727;28;20798;-63
2023/08/30 01:05:44;;;;;;;5.28;4.20;;;18.80;93.10;;;;;;10358605;28;20523;-64
2023/08/30 01:11:07;;;;;;;6.73;4.53;;;18.80;93.00;;;;;;10363734;28;20462;-63
2023/08/30 01:16:08;;;;;;;6.05;4.50;;;18.80;93.00;;;;;;10360883;28;20415;-62
2023/08/30 01:21:18;;;;;;;5.30;4.27;;;18.80;93.00;;;;;;10366505;28;20473;-64
2023/08/30 01:26:48;;;;;;;4.90;4.40;;;18.80;93.00;;;;;;10363239;28;20412;-64
2023/08/30 01:31:50;;;;;;;4.80;4.20;;;18.70;93.00;;;;;;10339958;28;20415;-62
2023/08/30 01:36:51;;;;;;;5.97;4.40;;;18.70;93.00;;;;;;10362327;28;20443;-63
2023/08/30 01:41:58;;;;;;;5.93;4.40;;;18.70;92.90;;;;;;10364986;28;20491;-64
2023/08/30 01:47:00;;;;;;;5.95;4.63;;;18.70;92.90;;;;;;10362903;28;20500;-64
2023/08/30 01:52:01;;;;;;;5.23;4.50;;;18.70;92.90;;;;;;10360174;28;20511;-64
2023/08/30 01:57:02;;;;;;;5.05;4.40;;;18.70;92.90;;;;;;10363198;28;20412;-63
2023/08/30 02:02:04;;;;;;;5.90;4.47;;;18.70;92.90;;;;;;10345001;28;20396;-63
2023/08/30 02:07:22;;;;;;;5.88;4.50;;;18.70;92.90;;;;;;10361510;28;20462;-64
2023/08/30 02:12:27;;;;;;;6.27;4.47;;;18.70;92.90;;;;;;10358135;28;20440;-63
2023/08/30 02:17:29;;;;;;;4.60;4.10;;;18.60;92.90;;;;;;10362845;28;20892;-63
2023/08/30 02:22:31;;;;;;;5.53;4.22;;;18.60;92.90;;;;;;10357833;28;20495;-63
2023/08/30 02:27:32;;;;;;;5.25;4.18;;;18.60;92.90;;;;;;10350537;28;20600;-63
2023/08/30 02:32:34;;;;;;;5.30;4.28;;;18.60;92.90;;;;;;10361089;28;20416;-64
2023/08/30 02:37:34;;;;;;;5.95;4.68;;;18.60;92.90;;;;;;10355196;28;20443;-63
2023/08/30 02:42:35;;;;;;;5.60;4.60;;;18.60;92.90;;;;;;10359285;28;20400;-63
2023/08/30 02:47:36;;;;;;;5.60;4.30;;;18.50;92.90;;;;;;10360437;28;20408;-64
2023/08/30 02:52:36;;;;;;;5.90;4.53;;;18.50;92.90;;;;;;10360367;28;20413;-64
2023/08/30 02:57:37;;;;;;;5.93;4.50;;;18.50;92.80;;;;;;10340346;28;20447;-63
2023/08/30 03:02:38;;;;;;;5.45;4.43;;;18.50;92.80;;;;;;10361763;28;20388;-63
2023/08/30 03:07:38;;;;;;;7.05;4.72;;;18.50;92.80;;;;;;10359178;28;20813;-63
2023/08/30 03:12:39;;;;;;;5.03;4.50;;;18.50;92.80;;;;;;10344172;28;20411;-64
2023/08/30 03:17:39;;;;;;;5.23;4.40;;;18.50;92.80;;;;;;10354914;28;20427;-63
2023/08/30 03:22:40;;;;;;;5.47;4.37;;;18.50;92.80;;;;;;10354705;28;20401;-63
2023/08/30 03:27:41;;;;;;;5.87;4.63;;;18.40;92.80;;;;;;10361649;28;20405;-63
2023/08/30 03:32:41;;;;;;;5.63;4.30;;;18.40;92.80;;;;;;10360504;28;20939;-64
2023/08/30 03:37:42;;;;;;;5.60;4.60;;;18.40;92.80;;;;;;10347164;28;20687;-64
2023/08/30 03:42:43;;;;;;;6.13;4.47;;;18.40;92.80;;;;;;10362074;28;20444;-62
2023/08/30 03:47:44;;;;;;;6.13;4.63;;;18.40;92.80;;;;;;10365417;28;20835;-64
2023/08/30 03:52:44;;;;;;;5.67;4.67;;;18.40;92.80;;;;;;10348026;28;20432;-63
2023/08/30 03:57:45;;;;;;;6.13;4.60;;;18.40;92.80;;;;;;10362983;28;20482;-63
2023/08/30 04:02:45;;;;;;;6.20;4.67;;;18.40;92.80;;;;;;10364426;28;20408;-63
2023/08/30 04:07:46;;;;;;;6.17;4.30;;;18.40;92.80;;;;;;10358846;28;20417;-64
2023/08/30 04:12:47;;;;;;;5.57;4.60;;;18.30;92.70;;;;;;10363894;28;20412;-63
2023/08/30 04:17:47;;;;;;;6.45;4.75;;;18.30;93.00;;;;;;10362453;28;20467;-64
2023/08/30 04:22:48;;;;;;;5.63;4.63;;;18.40;92.70;;;;;;10362072;28;20396;-63
2023/08/30 04:27:48;;;;;;;6.03;4.60;;;18.30;92.70;;;;;;10361717;28;20448;-63
2023/08/30 04:32:49;;;;;;;6.20;4.40;;;18.30;92.70;;;;;;10357338;28;20750;-63
2023/08/30 04:37:50;;;;;;;5.33;4.63;;;18.30;92.70;;;;;;10356616;28;20401;-63
2023/08/30 04:42:50;;;;;;;6.63;4.80;;;18.30;92.70;;;;;;10357763;28;20397;-62
2023/08/30 04:47:51;;;;;;;6.37;5.00;;;18.30;92.70;;;;;;10358569;28;20408;-63
2023/08/30 04:52:51;;;;;;;5.63;4.70;;;18.30;92.70;;;;;;10359621;28;20478;-63
2023/08/30 04:57:52;;;;;;;5.90;4.87;;;18.30;92.70;;;;;;10345817;28;20419;-67
2023/08/30 05:02:53;;;;;;;6.43;4.75;;;18.30;92.70;;;;;;10355909;28;21153;-63
2023/08/30 05:07:53;;;;;;;7.05;4.88;;;18.30;92.80;;;;;;10348895;28;20943;-63
2023/08/30 05:12:54;;;;;;;6.28;5.10;;;18.20;92.70;;;;;;10357913;28;20404;-63
2023/08/30 05:17:54;;;;;;;6.23;4.90;;;18.30;92.70;;;;;;10357348;28;21016;-63
2023/08/30 05:22:55;;;;;;;6.40;4.90;;;18.20;92.70;;;;;;10352996;28;20416;-63
2023/08/30 05:27:56;;;;;;;8.33;5.03;;;18.20;92.60;;;;;;10359704;28;20420;-63
2023/08/30 05:32:57;;;;;;;6.57;5.10;;;18.30;92.60;;;;;;10360496;28;20423;-63
2023/08/30 05:37:57;;;;;;;6.63;5.20;;;18.30;92.60;;;;;;10371922;28;20409;-63
2023/08/30 05:42:58;;;;;;;6.10;4.90;;;18.30;92.50;;;;;;10374119;28;20462;-63
2023/08/30 05:47:59;;;;;;;6.90;5.00;;;18.30;92.50;;;;;;10372387;28;20896;-64
2023/08/30 05:52:59;;;;;;;6.93;5.30;;;18.30;92.50;;;;;;10365657;28;20832;-63
2023/08/30 05:58:00;;;;;;;8.10;5.07;;;18.20;92.40;;;;;;10358367;28;20405;-64
2023/08/30 06:03:00;;;;;;;6.17;4.87;;;18.30;92.50;;;;;;10338293;28;20406;-63
2023/08/30 06:08:02;;;;;;;7.97;5.17;;;18.30;92.40;;;;;;10368418;28;20416;-63
2023/08/30 06:13:02;;;;;;;6.67;5.00;;;18.30;92.40;;;;;;10351016;28;20868;-62
2023/08/30 06:18:03;;;;;;;7.13;5.03;;;18.30;92.40;;;;;;10353364;28;20405;-64
2023/08/30 06:23:04;;;;;;;6.25;4.72;;;18.30;92.40;;;;;;10360868;28;20397;-64
2023/08/30 06:28:05;;;;;;;6.50;4.80;;;18.30;92.40;;;;;;10357434;28;20405;-62
2023/08/30 06:33:06;;;;;;;6.88;5.30;;;18.30;92.30;;;;;;10360992;28;20488;-64
2023/08/30 06:38:06;;;;;;;5.90;4.35;;;18.30;92.30;;;;;;10365304;28;20408;-63
2023/08/30 06:43:07;;;;;;;6.35;5.03;;;18.30;92.30;;;;;;10363265;28;20425;-64
2023/08/30 06:48:07;;;;;;;7.40;4.93;;;18.30;92.30;;;;;;10365102;28;20419;-63
2023/08/30 06:53:09;;;;;;;8.90;5.00;;;18.30;92.30;;;;;;10357461;28;20488;-62
2023/08/30 06:58:09;;;;;;;6.40;4.88;;;18.30;92.20;;;;;;10361005;28;20420;-64
2023/08/30 07:03:10;;;;;;;6.27;4.80;;;18.30;92.20;;;;;;10368711;28;20765;-64
2023/08/30 07:08:10;;;;;;;6.70;4.77;;;18.40;92.20;;;;;;10366141;28;20409;-63
2023/08/30 07:13:12;;;;;;;6.50;4.90;;;18.40;92.10;;;;;;10373019;28;20788;-61
2023/08/30 07:18:14;;;;;;;6.85;5.10;;;18.40;92.00;;;;;;10369866;28;20408;-62
2023/08/30 07:23:14;;;;;;;7.68;5.50;;;18.40;92.00;;;;;;10364138;28;20475;-63
2023/08/30 07:28:15;;;;;;;6.77;5.00;;;18.50;91.90;;;;;;10349328;28;20401;-63
2023/08/30 07:33:17;;;;;;;6.72;5.03;;;18.50;91.90;;;;;;10364290;28;20908;-63
2023/08/30 07:38:18;;;;;;;7.13;4.97;;;18.50;91.90;;;;;;10351989;28;20417;-62
2023/08/30 07:43:18;;;;;;;6.73;5.10;;;18.50;91.90;;;;;;10365997;28;20508;-64
2023/08/30 07:48:19;;;;;;;7.90;5.60;;;18.50;91.90;;;;;;10369012;28;20505;-64
2023/08/30 07:53:20;;;;;;;7.63;5.23;;;18.50;91.80;;;;;;10369741;28;20420;-62
2023/08/30 07:58:20;;;;;;;7.40;4.90;;;18.50;91.90;;;;;;10366590;28;20420;-63
2023/08/30 08:03:21;;;;;;;7.23;4.93;;;18.50;91.90;;;;;;10368935;28;20923;-63
2023/08/30 08:08:22;;;;;;;7.65;5.28;;;18.50;91.90;;;;;;10367450;28;20420;-63
2023/08/30 08:13:23;;;;;;;6.97;5.10;;;18.50;91.90;;;;;;10367834;28;20787;-64
2023/08/30 08:18:23;;;;;;;7.77;5.50;;;18.50;92.00;;;;;;10353891;28;20405;-63
2023/08/30 08:23:24;;;;;;;7.07;5.00;;;18.50;92.00;;;;;;10348910;28;20450;-63
2023/08/30 08:28:25;;;;;;;8.17;5.20;;;18.50;92.00;;;;;;10367398;28;20405;-63
2023/08/30 08:33:25;;;;;;;7.28;5.20;;;18.40;92.10;;;;;;10362523;28;20405;-64
2023/08/30 08:38:26;;;;;;;8.10;4.90;;;18.40;92.10;;;;;;10360945;28;20415;-63
2023/08/30 08:43:28;;;;;;;7.40;5.23;;;18.40;92.20;;;;;;10365410;28;20566;-63
2023/08/30 08:48:33;;;;;;;9.20;5.20;;;18.40;92.20;;;;;;10361706;28;20401;-64
2023/08/30 08:53:34;;;;;;;9.57;5.20;;;18.40;92.30;;;;;;10365100;28;20486;-63
2023/08/30 08:58:37;;;;;;;6.75;4.90;;;18.40;92.40;;;;;;10360687;28;20421;-61
2023/08/30 09:03:38;;;;;;;7.57;5.47;;;18.40;92.40;;;;;;10347327;28;20954;-62
2023/08/30 09:08:38;;;;;;;7.45;4.95;;;18.40;92.50;;;;;;10361921;28;20436;-63
2023/08/30 09:13:39;;;;;;;6.88;5.00;;;18.40;92.50;;;;;;10359268;28;20416;-64
2023/08/30 09:18:41;;;;;;;7.55;5.20;;;18.40;92.60;;;;;;10361551;28;21136;-62
2023/08/30 09:23:42;;;;;;;7.53;5.20;;;18.40;92.60;;;;;;10358163;28;20401;-63
2023/08/30 09:28:44;;;;;;;6.90;4.63;;;18.40;92.60;;;;;;10358723;28;20957;-63
2023/08/30 09:33:45;;;;;;;6.68;4.57;;;18.40;92.60;;;;;;10361855;28;20407;-62
2023/08/30 09:38:49;;;;;;;6.22;4.47;;;18.50;92.60;;;;;;10362018;28;20758;-61
2023/08/30 09:43:50;;;;;;;6.13;4.27;;;18.50;92.60;;;;;;10360044;28;20415;-63
2023/08/30 09:48:52;;;;;;;6.20;4.50;;;18.50;92.60;;;;;;10360739;28;20407;-63
2023/08/30 09:54:00;;;;;;;6.05;4.53;;;18.60;92.60;;;;;;10361244;28;20475;-63
2023/08/30 09:59:03;;;;;;;6.47;4.30;;;18.60;92.60;;;;;;10359389;28;20407;-63
2023/08/30 10:04:05;;;;;;;6.50;4.40;;;18.60;92.60;;;;;;10349710;28;20983;-62
2023/08/30 10:09:08;;;;;;;7.65;4.63;;;18.60;92.60;;;;;;10359815;28;20431;-63
2023/08/30 10:14:09;;;;;;;6.37;4.40;;;18.60;92.70;;;;;;10359932;28;20439;-63
2023/08/30 10:19:16;;;;;;;6.37;4.43;;;18.50;93.00;;;;;;10356611;28;20984;-63
2023/08/30 10:24:20;;;;;;;5.88;4.45;;;18.50;92.80;;;;;;10360130;28;20405;-63
2023/08/30 10:29:23;;;;;;;5.97;4.27;;;18.50;92.80;;;;;;10359056;28;20408;-64
2023/08/30 10:34:31;;;;;;;5.73;4.00;;;18.50;92.90;;;;;;10362679;28;20572;-63
2023/08/30 10:39:42;;;;;;;6.40;4.32;;;18.50;92.90;;;;;;10348309;28;20411;-62
2023/08/30 10:44:49;;;;;;;5.78;3.72;;;18.50;92.90;;;;;;10364654;28;20466;-63
2023/08/30 10:49:50;;;;;;;5.67;4.10;;;18.50;92.90;;;;;;10367523;28;20423;-62
2023/08/30 10:54:51;;;;;;;5.73;4.17;;;18.50;93.30;;;;;;10367757;28;20484;-63
2023/08/30 11:00:21;;;;;;;7.20;4.20;;;18.50;93.00;;;;;;10368523;28;20763;-63
2023/08/30 11:05:26;;;;;;;6.03;3.88;;;18.50;93.10;;;;;;10366094;28;20408;-63
2023/08/30 11:10:26;;;;;;;6.22;3.90;;;18.50;93.10;;;;;;10364752;28;20397;-63
2023/08/30 11:15:27;;;;;;;5.27;3.97;;;18.50;93.10;;;;;;10364424;28;20425;-63
2023/08/30 11:20:28;;;;;;;4.67;3.60;;;18.50;93.10;;;;;;10362114;28;20423;-63
2023/08/30 11:25:29;;;;;;;5.97;3.90;;;18.50;93.20;;;;;;10366973;28;20385;-62
2023/08/30 11:30:30;;;;;;;5.47;3.78;;;18.50;93.20;;;;;;10365146;28;20435;-63
2023/08/30 11:35:31;;;;;;;5.07;4.17;;;18.50;93.30;;;;;;10365596;28;20476;-63
2023/08/30 11:40:32;;;;;;;5.10;3.60;;;18.50;93.30;;;;;;10364243;28;20555;-63
2023/08/30 11:45:34;;;;;;;5.25;3.95;;;18.50;93.30;;;;;;10363439;28;20884;-63
2023/08/30 11:50:35;;;;;;;5.20;3.70;;;18.50;93.30;;;;;;10364412;28;20424;-61
2023/08/30 11:55:37;;;;;;;4.97;3.40;;;18.50;93.40;;;;;;10372516;28;20959;-62
2023/08/30 12:00:38;;;;;;;5.38;3.75;;;17.40;93.20;;;;;;10366334;28;20940;-63
2023/08/30 12:05:47;;;;;;;4.77;3.73;;;18.60;93.50;;;;;;10364532;28;20408;-63
2023/08/30 12:10:48;;;;;;;5.03;3.50;;;18.60;93.50;;;;;;10365390;28;20408;-63
2023/08/30 12:15:49;;;;;;;5.05;3.60;;;18.60;93.50;;;;;;10367718;28;20462;-63
2023/08/30 12:20:57;;;;;;;4.72;3.30;;;18.60;93.50;;;;;;10366760;28;20448;-63
2023/08/30 12:26:03;;;;;;;4.63;3.30;;;18.60;93.50;;;;;;10364302;28;20503;-63
2023/08/30 12:31:05;;;;;;;4.50;3.38;;;18.60;93.60;;;;;;10368240;28;20493;-63
2023/08/30 12:36:05;;;;;;;3.83;3.03;;;18.60;93.60;;;;;;10360529;28;20420;-63
2023/08/30 12:41:06;;;;;;;4.43;3.37;;;18.60;93.60;;;;;;10361783;28;20400;-63
2023/08/30 12:46:07;;;;;;;4.70;3.22;;;18.50;93.90;;;;;;10363147;28;20679;-69
2023/08/30 12:51:07;;;;;;;10.45;3.97;;;18.60;94.60;;;;;;10360472;28;20412;-64
2023/08/30 12:56:08;;;;;;;5.05;3.20;;;18.50;95.10;;;;;;10359360;28;20466;-64
2023/08/30 13:01:09;;;;;;;5.15;2.85;;;18.50;95.00;;;;;;10367432;28;20414;-65
2023/08/30 13:06:09;;;;;;;4.53;2.83;;;18.60;95.10;;;;;;10364781;28;20400;-65
2023/08/30 13:11:10;;;;;;;4.33;3.20;;;18.60;95.30;;;;;;10365370;28;20413;-65
2023/08/30 13:16:10;;;;;;;5.00;3.10;;;18.70;95.30;;;;;;10365212;28;20735;-64
2023/08/30 13:21:11;;;;;;;6.07;3.43;;;18.70;95.30;;;;;;10362646;28;20407;-65
2023/08/30 13:26:12;;;;;;;4.07;3.03;;;18.70;96.00;;;;;;10363120;28;20404;-65
2023/08/30 13:31:12;;;;;;;4.30;3.50;;;18.70;96.00;;;;;;10364031;28;20403;-64
2023/08/30 13:36:13;;;;;;;6.13;3.70;;;18.70;96.10;;;;;;10360348;28;20992;-66
2023/08/30 13:41:13;;;;;;;4.20;2.90;;;18.80;96.20;;;;;;10364544;28;20451;-65
2023/08/30 13:46:14;;;;;;;4.53;2.58;;;18.90;96.60;;;;;;10354706;28;20436;-66
2023/08/30 13:51:23;;;;;;;3.10;2.45;;;18.90;96.50;;;;;;10364696;28;20412;-65
2023/08/30 13:56:24;;;;;;;3.50;2.40;;;19.00;96.50;;;;;;10360447;28;20441;-64
2023/08/30 14:01:25;;;;;;;3.05;2.22;;;19.00;96.40;;;;;;10348085;28;20492;-65
2023/08/30 14:06:25;;;;;;;3.90;2.60;;;19.00;96.40;;;;;;10364802;28;20472;-64
2023/08/30 14:11:26;;;;;;;3.57;2.60;;;19.00;96.30;;;;;;10363028;28;20409;-65
2023/08/30 14:16:27;;;;;;;3.60;2.50;;;19.00;96.30;;;;;;10364779;28;20421;-66
2023/08/30 14:21:27;;;;;;;3.20;2.30;;;19.00;96.30;;;;;;10347199;28;20411;-65
2023/08/30 14:26:28;;;;;;;3.13;2.10;;;19.10;96.20;;;;;;10360938;28;20411;-64
2023/08/30 14:31:30;;;;;;;3.53;2.40;;;19.30;96.00;;;;;;10360711;28;20443;-65
2023/08/30 14:36:31;;;;;;;2.75;1.92;;;19.40;95.80;;;;;;10340919;28;20804;-64
2023/08/30 14:41:32;;;;;;;3.57;2.23;;;19.50;95.50;;;;;;10359450;28;20420;-64
2023/08/30 14:46:33;;;;;;;3.08;2.10;;;19.60;95.40;;;;;;10360256;28;20764;-64
2023/08/30 14:51:34;;;;;;;3.50;2.30;;;19.60;95.30;;;;;;10337334;28;20483;-64
2023/08/30 14:56:34;;;;;;;2.53;2.00;;;19.40;95.40;;;;;;10359069;28;20894;-65
2023/08/30 15:01:37;;;;;;;3.15;2.03;;;19.40;95.40;;;;;;10341323;28;20401;-65
2023/08/30 15:06:39;;;;;;;3.90;2.00;;;19.40;95.50;;;;;;10360191;28;20500;-65
2023/08/30 15:11:43;;;;;;;2.95;2.00;;;19.40;95.50;;;;;;10357559;28;21335;-63
2023/08/30 15:16:43;;;;;;;4.43;2.10;;;19.50;95.30;;;;;;10358379;28;20486;-66
2023/08/30 15:21:45;;;;;;;3.90;1.93;;;19.60;95.30;;;;;;10363743;28;20455;-66
2023/08/30 15:26:47;;;;;;;4.10;2.00;;;19.60;95.30;;;;;;10365780;28;20407;-64
2023/08/30 15:31:51;;;;;;;3.35;1.88;;;19.50;95.20;;;;;;10366996;28;20416;-64
2023/08/30 15:36:51;;;;;;;3.65;2.00;;;19.50;95.30;;;;;;10365500;28;21015;-65
2023/08/30 15:41:52;;;;;;;3.10;1.93;;;19.50;95.30;;;;;;10361702;28;20434;-65
2023/08/30 15:46:53;;;;;;;3.63;1.80;;;19.50;95.30;;;;;;10363188;28;20405;-65
2023/08/30 15:51:53;;;;;;;2.70;1.70;;;19.40;95.30;;;;;;10363925;28;20671;-65
2023/08/30 15:56:54;;;;;;;3.27;1.67;;;19.40;95.10;;;;;;10363391;28;20431;-65
2023/08/30 16:01:54;;;;;;;2.20;1.70;;;19.40;95.10;;;;;;10363427;28;20447;-64
2023/08/30 16:06:55;;;;;;;4.77;1.90;;;19.50;95.10;;;;;;10362943;28;20416;-65
2023/08/30 16:11:56;;;;;;;4.03;1.80;;;19.50;95.20;;;;;;10361578;28;20404;-64
2023/08/30 16:16:56;;;;;;;7.60;2.60;;;19.40;95.20;;;;;;10359443;28;20596;-65
2023/08/30 16:21:57;;;;;;;3.53;1.80;;;19.40;95.30;;;;;;10370058;28;20764;-65
2023/08/30 16:27:00;;;;;;;6.82;1.67;;;19.30;95.30;;;;;;10350769;28;20431;-66
2023/08/30 16:32:00;;;;;;;4.55;1.80;;;19.30;95.50;;;;;;10353630;28;20415;-66
2023/08/30 16:37:01;;;;;;;5.07;1.83;;;19.30;95.60;;;;;;10367818;28;20411;-66
2023/08/30 16:42:01;;;;;;;5.13;1.97;;;19.20;95.50;;;;;;10367807;28;20455;-65
2023/08/30 16:47:02;;;;;;;3.87;1.60;;;19.20;95.40;;;;;;10364953;28;20409;-65
2023/08/30 16:52:03;;;;;;;3.03;1.43;;;19.30;95.50;;;;;;10366057;28;20629;-66
2023/08/30 16:57:04;;;;;;;4.45;1.80;;;19.30;95.40;;;;;;10368513;28;20459;-63
2023/08/30 17:02:05;;;;;;;4.60;1.40;;;19.30;95.30;;;;;;10369165;28;20458;-65
2023/08/30 17:07:05;;;;;;;3.73;1.50;;;19.30;95.10;;;;;;10353683;28;20697;-64
2023/08/30 17:12:07;;;;;;;2.93;1.43;;;19.30;95.10;;;;;;10367337;28;20916;-65
2023/08/30 17:17:07;;;;;;;4.78;1.70;;;19.30;94.90;;;;;;10368051;28;20404;-65
2023/08/30 17:22:08;;;;;;;3.67;1.57;;;19.30;95.00;;;;;;10362990;28;20397;-65
2023/08/30 17:27:09;;;;;;;4.50;1.83;;;19.30;95.00;;;;;;10365095;28;20411;-64
2023/08/30 17:32:10;;;;;;;4.20;1.60;;;19.30;95.10;;;;;;10348015;28;20492;-64
2023/08/30 17:37:11;;;;;;;3.93;1.73;;;19.20;95.00;;;;;;10359851;28;20416;-64
2023/08/30 17:42:11;;;;;;;4.43;1.53;;;19.10;95.10;;;;;;10360961;28;21057;-63
2023/08/30 17:47:12;;;;;;;3.80;1.60;;;19.20;95.10;;;;;;10365205;28;20416;-64
2023/08/30 17:52:12;;;;;;;6.77;1.80;;;19.20;95.10;;;;;;10363206;28;20881;-63
2023/08/30 17:57:13;;;;;;;3.50;1.80;;;19.10;95.30;;;;;;10358904;28;20434;-64
2023/08/30 18:02:14;;;;;;;5.60;1.60;;;19.10;95.10;;;;;;10360827;28;20400;-63
2023/08/30 18:07:15;;;;;;;3.73;1.60;;;19.20;95.00;;;;;;10361445;28;20405;-63
2023/08/30 18:12:16;;;;;;;4.60;1.60;;;19.10;95.00;;;;;;10360645;28;20411;-64
2023/08/30 18:17:17;;;;;;;3.77;1.60;;;19.10;95.00;;;;;;10356999;28;20405;-63
2023/08/30 18:22:18;;;;;;;2.77;1.63;;;19.10;95.10;;;;;;10356599;28;20479;-63
2023/08/30 18:27:19;;;;;;;5.07;1.70;;;19.10;95.10;;;;;;10357338;28;20477;-63
2023/08/30 18:32:20;;;;;;;3.58;1.50;;;19.10;95.10;;;;;;10357553;28;20511;-63
2023/08/30 18:37:21;;;;;;;4.18;1.60;;;19.10;95.10;;;;;;10352870;28;20447;-63
2023/08/30 18:42:21;;;;;;;4.30;1.90;;;19.10;95.10;;;;;;10352736;28;20419;-63
2023/08/30 18:47:22;;;;;;;4.90;1.50;;;19.00;95.20;;;;;;10356507;28;20492;-63
2023/08/30 18:52:23;;;;;;;4.90;1.80;;;19.00;95.20;;;;;;10354094;28;20520;-63
2023/08/30 18:57:23;;;;;;;2.90;1.53;;;19.00;95.20;;;;;;10348258;28;20503;-64
2023/08/30 19:02:24;;;;;;;3.63;1.50;;;19.00;95.20;;;;;;10360648;28;20412;-64
2023/08/30 19:07:25;;;;;;;3.07;1.40;;;19.00;95.20;;;;;;10361848;28;20458;-64
2023/08/30 19:12:26;;;;;;;3.97;1.50;;;19.00;95.20;;;;;;10359078;28;20400;-63
2023/08/30 19:17:27;;;;;;;3.37;1.60;;;19.00;95.20;;;;;;10360072;28;20416;-64
2023/08/30 19:22:27;;;;;;;3.60;1.70;;;19.00;95.10;;;;;;10363214;28;20397;-64
2023/08/30 19:27:28;;;;;;;2.87;1.23;;;19.00;95.10;;;;;;10359023;28;20916;-64
2023/08/30 19:32:29;;;;;;;3.25;1.50;;;18.90;95.10;;;;;;10359487;28;20419;-63
2023/08/30 19:37:31;;;;;;;2.33;1.27;;;19.00;95.00;;;;;;10360451;28;20451;-63
2023/08/30 19:42:32;;;;;;;2.60;1.23;;;18.90;95.00;;;;;;10361205;28;20413;-64
2023/08/30 19:47:32;;;;;;;2.35;1.30;;;18.90;95.00;;;;;;10346098;28;20412;-63
2023/08/30 19:52:33;;;;;;;3.53;1.40;;;18.90;94.90;;;;;;10358094;28;20784;-64
2023/08/30 19:57:36;;;;;;;3.13;1.23;;;19.00;94.90;;;;;;10328042;28;20420;-64
2023/08/30 20:02:37;;;;;;;3.35;1.30;;;18.80;94.80;;;;;;10357655;28;20491;-64
2023/08/30 20:07:38;;;;;;;3.03;1.20;;;18.90;95.00;;;;;;10359379;28;20462;-64
2023/08/30 20:12:38;;;;;;;2.40;1.30;;;18.80;94.70;;;;;;10361440;28;20813;-64
2023/08/30 20:17:39;;;;;;;3.03;1.30;;;18.80;94.60;;;;;;10355611;28;20546;-63
2023/08/30 20:22:40;;;;;;;2.30;1.20;;;18.80;94.50;;;;;;10359279;28;20401;-63
2023/08/30 20:27:41;;;;;;;2.70;1.20;;;18.80;94.50;;;;;;10357349;28;20408;-63
2023/08/30 20:32:42;;;;;;;2.30;1.30;;;18.80;94.50;;;;;;10357415;28;20829;-64
2023/08/30 20:37:43;;;;;;;1.93;1.23;;;18.70;94.40;;;;;;10358414;28;20421;-64
2023/08/30 20:42:43;;;;;;;2.65;1.23;;;18.70;94.60;;;;;;10357942;28;20847;-63
2023/08/30 20:47:44;;;;;;;2.23;1.40;;;18.70;94.40;;;;;;10357612;28;20404;-63
2023/08/30 20:52:45;;;;;;;1.63;1.20;;;18.70;94.40;;;;;;10358340;28;20428;-63
2023/08/30 20:57:46;;;;;;;2.80;1.08;;;18.60;94.30;;;;;;10340445;28;20422;-62
2023/08/30 21:02:46;;;;;;;2.90;1.30;;;18.60;94.30;;;;;;10356583;28;20463;-63
2023/08/30 21:07:47;;;;;;;3.70;1.27;;;18.60;94.30;;;;;;10357769;28;20400;-64
2023/08/30 21:12:48;;;;;;;2.43;1.37;;;18.60;94.30;;;;;;10356226;28;20467;-64
2023/08/30 21:17:50;;;;;;;2.00;1.17;;;18.60;94.20;;;;;;10356901;28;20908;-63
2023/08/30 21:22:51;;;;;;;2.65;1.40;;;18.50;94.10;;;;;;10357690;28;20431;-64
2023/08/30 21:27:53;;;;;;;2.08;1.20;;;18.50;94.10;;;;;;10341300;28;20451;-64
2023/08/30 21:32:54;;;;;;;2.10;1.20;;;18.50;94.00;;;;;;10355061;28;20782;-63
2023/08/30 21:37:54;;;;;;;2.33;1.20;;;18.40;94.00;;;;;;10355347;28;20429;-64
2023/08/30 21:42:55;;;;;;;2.45;1.10;;;18.40;94.00;;;;;;10351339;28;21029;-64
2023/08/30 21:47:56;;;;;;;2.03;1.17;;;18.40;94.00;;;;;;10354227;28;20471;-63
2023/08/30 21:52:56;;;;;;;2.10;1.20;;;18.40;94.00;;;;;;10352763;28;20416;-64
2023/08/30 21:57:57;;;;;;;2.13;1.50;;;18.40;94.00;;;;;;10353854;28;20951;-63
2023/08/30 22:02:58;;;;;;;2.60;1.20;;;18.30;94.00;;;;;;10357993;28;20404;-67
2023/08/30 22:07:59;;;;;;;1.67;1.30;;;18.30;94.00;;;;;;10357891;28;20892;-64
2023/08/30 22:12:59;;;;;;;2.30;1.25;;;18.30;94.00;;;;;;10363879;28;20401;-63
2023/08/30 22:18:00;;;;;;;4.43;1.27;;;18.30;93.90;;;;;;10360323;28;20403;-61
2023/08/30 22:23:02;;;;;;;3.03;1.40;;;18.30;94.00;;;;;;10362247;28;20399;-66
2023/08/30 22:28:03;;;;;;;3.92;1.33;;;18.20;93.90;;;;;;10365799;28;20430;-64
2023/08/30 22:33:04;;;;;;;2.90;1.20;;;18.20;93.90;;;;;;10361726;28;20498;-63
2023/08/30 22:38:05;;;;;;;2.15;1.23;;;18.20;93.90;;;;;;10357715;28;20424;-63
2023/08/30 22:43:05;;;;;;;2.78;1.20;;;18.20;93.90;;;;;;10361596;28;20507;-63
2023/08/30 22:48:06;;;;;;;1.90;1.23;;;18.20;93.90;;;;;;10363944;28;20469;-63
2023/08/30 22:53:07;;;;;;;1.70;1.10;;;18.20;93.90;;;;;;10360318;28;20846;-64
2023/08/30 22:58:08;;;;;;;2.90;1.20;;;18.20;93.90;;;;;;10342410;28;20408;-64
2023/08/30 23:03:08;;;;;;;3.20;1.27;;;18.10;93.80;;;;;;10362461;28;20431;-64
2023/08/30 23:08:09;;;;;;;1.87;1.27;;;18.10;93.80;;;;;;10357433;28;20510;-64
2023/08/30 23:13:10;;;;;;;3.60;1.10;;;18.10;93.80;;;;;;10356459;28;20783;-64
2023/08/30 23:18:10;;;;;;;2.60;1.30;;;18.10;93.80;;;;;;10361487;28;20445;-64
2023/08/30 23:23:11;;;;;;;2.15;1.42;;;18.50;93.80;;;;;;10360088;28;20440;-63
2023/08/30 23:28:13;;;;;;;1.97;1.17;;;18.10;93.70;;;;;;10358154;28;20960;-63
2023/08/30 23:33:14;;;;;;;1.75;1.20;;;18.00;93.70;;;;;;10359958;28;20415;-64
2023/08/30 23:38:15;;;;;;;2.80;1.43;;;18.00;93.70;;;;;;10355615;28;20456;-63
2023/08/30 23:43:15;;;;;;;2.13;1.30;;;18.00;93.70;;;;;;10368311;28;20397;-63
2023/08/30 23:48:16;;;;;;;2.17;1.23;;;18.00;93.70;;;;;;10362883;28;20933;-62
2023/08/30 23:53:17;;;;;;;2.40;1.23;;;18.00;93.70;;;;;;10368478;28;20481;-63
2023/08/30 23:58:17;;;;;;;2.33;1.50;;;17.90;93.70;;;;;;10366313;28;20504;-64
